Time;durP1;ratioP1;P1;durP2;ratioP2;P2;SDS_P1;SDS_P2;PMS_P1;PMS_P2;Temp;Humidity;BMP_temperature;BMP_pressure;BME280_temperature;BME280_humidity;BME280_pressure;Samples;Min_cycle;Max_cycle;Signal;HPM_P1;HPM_P2
2021/12/03 00:01:08;;;;;;;5.93;3.28;;;;;;;4.14;61.47;100999.06;4932851;28;125254;-61
2021/12/03 00:03:36;;;;;;;5.25;3.08;;;;;;;4.13;61.37;100993.88;4930661;28;114169;-61
2021/12/03 00:06:04;;;;;;;4.78;2.85;;;;;;;4.14;61.36;101000.84;4932459;28;114481;-61
2021/12/03 00:08:31;;;;;;;6.05;3.20;;;;;;;4.12;61.39;101006.09;4930187;28;123840;-61
2021/12/03 00:11:01;;;;;;;5.45;3.22;;;;;;;4.13;61.43;101009.59;4928603;28;125283;-61
2021/12/03 00:13:31;;;;;;;6.20;3.25;;;;;;;4.10;61.53;101011.34;4932464;28;114637;-61
2021/12/03 00:15:59;;;;;;;5.00;2.85;;;;;;;4.11;61.46;101012.25;4930524;28;114512;-61
2021/12/03 00:18:27;;;;;;;6.45;3.15;;;;;;;4.10;61.62;101011.34;4929465;28;125466;-61
2021/12/03 00:20:55;;;;;;;5.45;3.00;;;;;;;4.10;61.67;101010.50;4928956;28;123732;-61
2021/12/03 00:23:25;;;;;;;5.03;3.05;;;;;;;4.12;61.54;101015.72;4928931;28;114730;-61
2021/12/03 00:25:53;;;;;;;5.75;2.67;;;;;;;4.12;61.57;101013.09;4932473;28;113881;-61
2021/12/03 00:28:20;;;;;;;5.35;3.00;;;;;;;4.12;61.47;101013.09;4933225;28;123986;-61
2021/12/03 00:30:48;;;;;;;6.97;3.22;;;;;;;4.13;61.68;101009.59;4925417;28;123372;-61
2021/12/03 00:33:15;;;;;;;6.57;3.10;;;;;;;4.15;61.57;101013.06;4932575;28;115567;-61
2021/12/03 00:35:42;;;;;;;5.63;3.35;;;;;;;4.15;61.78;101010.44;4932178;28;115135;-61
2021/12/03 00:38:09;;;;;;;5.43;3.05;;;;;;;4.14;61.52;101006.06;4927881;28;124151;-61
2021/12/03 00:40:39;;;;;;;7.43;3.35;;;;;;;4.16;61.49;101020.03;4929313;28;123756;-61
2021/12/03 00:43:07;;;;;;;6.00;3.30;;;;;;;4.17;61.64;101024.38;4930514;28;114013;-61
2021/12/03 00:45:35;;;;;;;5.75;3.03;;;;;;;4.18;61.50;101023.47;4928206;28;114206;-61
2021/12/03 00:48:04;;;;;;;8.10;3.40;;;;;;;4.18;61.79;101013.00;4929953;28;123708;-61
2021/12/03 00:50:32;;;;;;;8.45;3.35;;;;;;;4.18;61.74;101023.47;4929641;28;122751;-61
2021/12/03 00:53:01;;;;;;;5.90;3.22;;;;;;;4.19;61.81;101020.84;4932368;28;114464;-61
2021/12/03 00:55:30;;;;;;;5.57;3.40;;;;;;;4.20;61.54;101019.06;4932126;28;114428;-61
2021/12/03 00:57:58;;;;;;;6.70;3.40;;;;;;;4.20;61.59;101014.72;4929181;28;123898;-60
2021/12/03 01:00:30;;;;;;;7.55;3.80;;;;;;;4.20;61.61;101011.22;4927300;28;124273;-60
2021/12/03 01:02:59;;;;;;;8.80;3.78;;;;;;;4.20;61.66;101011.22;4930094;28;113899;-60
2021/12/03 01:05:27;;;;;;;8.13;3.83;;;;;;;4.21;61.66;101007.72;4932259;28;112888;-60
2021/12/03 01:07:54;;;;;;;9.60;3.90;;;;;;;4.21;61.83;101007.72;4927452;28;124107;-60
2021/12/03 01:10:23;;;;;;;7.53;4.20;;;;;;;4.21;61.96;101010.34;4927771;28;123735;-60
2021/12/03 01:12:51;;;;;;;7.85;4.25;;;;;;;4.21;61.69;101013.81;4931013;28;115293;-61
2021/12/03 01:15:22;;;;;;;8.40;4.50;;;;;;;4.22;61.66;101025.16;4929140;28;113914;-60
2021/12/03 01:17:50;;;;;;;12.55;4.45;;;;;;;4.22;61.89;101015.56;4929530;28;124118;-61
2021/12/03 01:20:18;;;;;;;10.18;5.00;;;;;;;4.23;61.90;101021.66;4925522;28;125270;-60
2021/12/03 01:22:47;;;;;;;9.32;4.93;;;;;;;4.23;62.00;101026.91;4928057;28;114991;-60
2021/12/03 01:25:17;;;;;;;9.85;4.88;;;;;;;4.24;61.75;101028.66;4927774;28;114824;-60
2021/12/03 01:27:45;;;;;;;10.82;4.78;;;;;;;4.25;62.03;101027.75;4928964;28;124050;-61
2021/12/03 01:30:15;;;;;;;10.63;5.13;;;;;;;4.26;61.93;101026.88;4929221;28;124310;-60
2021/12/03 01:32:44;;;;;;;14.13;4.95;;;;;;;4.28;62.09;101025.09;4930925;28;114060;-60
2021/12/03 01:35:12;;;;;;;9.55;5.15;;;;;;;4.29;61.80;101021.56;4913518;28;113273;-60
2021/12/03 01:37:40;;;;;;;10.15;5.03;;;;;;;4.30;61.81;101018.06;4929677;28;124883;-60
2021/12/03 01:40:11;;;;;;;9.75;5.18;;;;;;;4.30;62.09;101028.53;4930836;28;123086;-60
2021/12/03 01:42:41;;;;;;;9.32;5.13;;;;;;;4.30;62.01;101028.53;4930978;28;114624;-60
2021/12/03 01:45:09;;;;;;;11.73;5.57;;;;;;;4.30;62.01;101028.53;4929922;28;113738;-60
2021/12/03 01:47:36;;;;;;;11.10;5.10;;;;;;;4.30;62.00;101033.78;4929050;28;124652;-60
2021/12/03 01:50:03;;;;;;;10.75;5.72;;;;;;;4.30;62.03;101023.31;4914154;28;122930;-60
2021/12/03 01:52:31;;;;;;;11.63;5.30;;;;;;;4.31;61.95;101030.25;4928664;28;114520;-60
2021/12/03 01:54:59;;;;;;;12.43;5.63;;;;;;;4.31;62.07;101025.00;4928489;28;113848;-60
2021/12/03 01:57:27;;;;;;;10.48;6.18;;;;;;;4.31;61.91;101025.00;4931394;28;123995;-60
2021/12/03 01:59:54;;;;;;;13.10;6.22;;;;;;;4.32;61.95;101021.50;4929996;28;124069;-61
2021/12/03 02:02:22;;;;;;;16.80;6.00;;;;;;;4.33;62.09;101022.38;4929454;28;114120;-61
2021/12/03 02:04:49;;;;;;;13.10;6.25;;;;;;;4.34;62.08;101019.72;4928901;28;114581;-60
2021/12/03 02:07:16;;;;;;;15.30;6.50;;;;;;;4.33;62.14;101012.75;4929029;28;124058;-61
2021/12/03 02:09:43;;;;;;;12.40;7.05;;;;;;;4.34;62.14;101011.88;4928215;28;124197;-60
2021/12/03 02:12:11;;;;;;;12.55;7.35;;;;;;;4.36;62.04;101014.47;4930253;28;114240;-60
2021/12/03 02:14:38;;;;;;;15.18;7.50;;;;;;;4.37;62.17;101019.69;4927559;28;115006;-61
2021/12/03 02:17:05;;;;;;;18.20;7.97;;;;;;;4.39;62.19;101017.03;4930540;28;123079;-60
2021/12/03 02:19:34;;;;;;;15.48;7.80;;;;;;;4.41;62.03;101015.25;4930026;28;124386;-61
2021/12/03 02:22:01;;;;;;;14.48;7.05;;;;;;;4.42;62.40;101012.59;4929247;28;114431;-61
2021/12/03 02:24:30;;;;;;;14.38;7.97;;;;;;;4.44;62.30;101010.81;4930309;28;113814;-61
2021/12/03 02:26:57;;;;;;;14.60;7.10;;;;;;;4.45;62.26;101017.78;4926092;28;123816;-61
2021/12/03 02:29:26;;;;;;;17.05;8.00;;;;;;;4.48;61.92;101017.75;4928722;28;124214;-61
2021/12/03 02:31:53;;;;;;;19.75;8.32;;;;;;;4.51;62.22;101015.97;4928333;28;114507;-60
2021/12/03 02:34:20;;;;;;;15.20;7.63;;;;;;;4.52;62.28;101012.44;4928805;28;114021;-62
2021/12/03 02:36:47;;;;;;;16.17;8.18;;;;;;;4.52;62.33;101017.69;4929939;28;123712;-62
2021/12/03 02:39:15;;;;;;;15.77;8.15;;;;;;;4.54;62.24;101015.91;4928542;28;124521;-62
2021/12/03 02:41:42;;;;;;;13.93;7.53;;;;;;;4.54;62.30;101021.13;4930423;28;114743;-62
2021/12/03 02:44:09;;;;;;;16.10;8.00;;;;;;;4.56;62.51;101024.59;4929053;28;113857;-62
2021/12/03 02:46:37;;;;;;;16.08;8.32;;;;;;;4.58;62.38;101028.09;4928780;28;124151;-62
2021/12/03 02:49:05;;;;;;;21.30;8.85;;;;;;;4.60;62.45;101026.31;4933332;28;124268;-62
2021/12/03 02:51:32;;;;;;;16.35;8.68;;;;;;;4.62;62.65;101014.03;4931710;28;114608;-62
2021/12/03 02:54:00;;;;;;;16.88;9.73;;;;;;;4.63;62.44;101015.75;4932378;28;114783;-62
2021/12/03 02:56:28;;;;;;;18.55;10.05;;;;;;;4.64;62.37;101013.09;4929624;28;123736;-62
2021/12/03 02:58:55;;;;;;;20.77;10.60;;;;;;;4.66;62.41;101010.44;4931389;28;123909;-61
2021/12/03 03:01:22;;;;;;;21.45;10.63;;;;;;;4.68;62.30;101008.66;4931948;28;115060;-62
2021/12/03 03:03:49;;;;;;;29.15;12.00;;;;;;;4.69;62.51;101010.41;4927513;28;115211;-62
2021/12/03 03:06:17;;;;;;;26.35;11.43;;;;;;;4.71;62.40;101008.63;4933053;28;124066;-61
2021/12/03 03:08:45;;;;;;;25.85;12.00;;;;;;;4.73;62.46;101012.06;4928725;28;123635;-62
2021/12/03 03:11:12;;;;;;;33.20;13.35;;;;;;;4.74;62.49;101013.78;4927877;28;114847;-63
2021/12/03 03:13:39;;;;;;;29.52;12.90;;;;;;;4.74;62.52;101019.03;4932485;28;113950;-63
2021/12/03 03:16:07;;;;;;;30.83;12.70;;;;;;;4.78;62.42;101020.69;4930874;28;124925;-63
2021/12/03 03:18:35;;;;;;;34.42;12.80;;;;;;;4.80;62.72;101012.81;4932185;28;122863;-63
2021/12/03 03:21:05;;;;;;;30.63;13.88;;;;;;;4.83;62.48;101011.00;4931667;28;114801;-63
2021/12/03 03:23:34;;;;;;;35.42;14.00;;;;;;;4.83;62.41;101003.13;4932435;28;114743;-63
2021/12/03 03:26:02;;;;;;;35.25;15.05;;;;;;;4.84;62.50;101015.38;4930874;28;124354;-63
2021/12/03 03:28:30;;;;;;;41.08;14.80;;;;;;;4.87;62.71;101015.28;4931062;28;124301;-63
2021/12/03 03:30:59;;;;;;;33.25;14.48;;;;;;;4.90;62.79;101021.38;4931772;28;113842;-63
2021/12/03 03:33:28;;;;;;;46.15;15.88;;;;;;;4.92;62.76;101007.34;4930308;28;113153;-63
2021/12/03 03:35:55;;;;;;;41.60;15.15;;;;;;;4.95;62.58;101003.78;4934031;28;123672;-63
2021/12/03 03:38:22;;;;;;;40.67;15.50;;;;;;;4.97;62.63;101020.38;4931050;28;123876;-62
2021/12/03 03:40:51;;;;;;;43.95;16.02;;;;;;;5.00;62.74;101009.81;4929084;28;114859;-63
2021/12/03 03:43:19;;;;;;;47.53;16.65;;;;;;;5.02;62.81;101008.03;4934363;28;114271;-63
2021/12/03 03:45:48;;;;;;;41.72;15.07;;;;;;;5.04;62.65;100996.59;4931742;28;126099;-63
2021/12/03 03:48:15;;;;;;;39.78;16.10;;;;;;;5.07;62.88;100995.69;4933498;28;123961;-63
2021/12/03 03:50:42;;;;;;;44.63;15.13;;;;;;;5.10;62.84;100995.59;4930465;28;115020;-63
2021/12/03 03:53:09;;;;;;;42.65;15.13;;;;;;;5.12;62.67;100999.06;4933493;28;115165;-63
2021/12/03 03:55:37;;;;;;;38.92;14.73;;;;;;;5.15;62.85;100993.75;4930625;28;124696;-63
2021/12/03 03:58:04;;;;;;;40.10;15.25;;;;;;;5.17;62.99;100991.97;4931117;28;123341;-61
2021/12/03 04:00:40;;;;;;;37.28;14.95;;;;;;;5.20;62.65;100991.06;4931280;28;113850;-61
2021/12/03 04:03:08;;;;;;;35.95;14.20;;;;;;;5.21;62.65;100988.38;4930627;28;113559;-61
2021/12/03 04:05:35;;;;;;;31.90;12.88;;;;;;;5.23;62.88;100986.59;4929144;28;124388;-62
2021/12/03 04:08:03;;;;;;;36.38;13.63;;;;;;;5.25;62.67;100989.19;4930733;28;124284;-62
2021/12/03 04:10:30;;;;;;;34.38;13.00;;;;;;;5.26;62.76;100983.91;4929308;28;114125;-62
2021/12/03 04:12:58;;;;;;;31.30;13.02;;;;;;;5.28;62.73;100988.28;4932894;28;113876;-62
2021/12/03 04:15:25;;;;;;;31.42;13.10;;;;;;;5.29;62.91;100979.47;4932295;28;124647;-62
2021/12/03 04:17:52;;;;;;;35.53;13.27;;;;;;;5.31;62.77;100969.81;4930693;28;124047;-62
2021/12/03 04:20:21;;;;;;;28.27;12.50;;;;;;;5.33;63.09;100971.53;4931016;28;115159;-61
2021/12/03 04:22:49;;;;;;;33.83;12.90;;;;;;;5.34;62.77;100977.63;4929627;28;113552;-61
2021/12/03 04:25:20;;;;;;;30.42;13.52;;;;;;;5.36;62.76;100975.84;4927743;28;124197;-62
2021/12/03 04:27:48;;;;;;;31.25;13.05;;;;;;;5.36;63.07;100975.84;4929993;28;123998;-62
2021/12/03 04:30:20;;;;;;;33.53;12.88;;;;;;;5.38;63.06;100971.41;4929750;28;114161;-66
2021/12/03 04:32:48;;;;;;;35.55;13.70;;;;;;;5.38;62.80;100974.03;4932673;28;116920;-61
2021/12/03 04:35:15;;;;;;;29.92;13.43;;;;;;;5.40;63.02;100972.25;4931775;28;125396;-61
2021/12/03 04:37:43;;;;;;;32.15;13.35;;;;;;;5.42;63.08;100970.44;4932383;28;124804;-62
2021/12/03 04:40:13;;;;;;;36.90;14.40;;;;;;;5.44;63.10;100979.16;4931562;28;115595;-62
2021/12/03 04:42:41;;;;;;;36.28;13.57;;;;;;;5.45;63.06;100980.91;4932447;28;115157;-61
2021/12/03 04:45:10;;;;;;;34.03;13.77;;;;;;;5.47;63.19;100979.09;4929614;28;123826;-61
2021/12/03 04:47:37;;;;;;;38.08;14.85;;;;;;;5.48;62.91;100970.28;4928672;28;124258;-61
2021/12/03 04:50:08;;;;;;;33.40;13.75;;;;;;;5.51;62.98;100972.88;4931393;28;114300;-61
2021/12/03 04:52:35;;;;;;;33.88;13.90;;;;;;;5.55;63.13;100971.91;4932424;28;114085;-61
2021/12/03 04:55:04;;;;;;;31.30;13.82;;;;;;;5.56;63.03;100973.66;4928332;28;124506;-62
2021/12/03 04:57:31;;;;;;;33.13;13.70;;;;;;;5.57;62.82;100972.72;4927479;28;123886;-61
2021/12/03 04:59:59;;;;;;;36.53;14.73;;;;;;;5.58;62.76;100982.34;4930430;28;114172;-62
2021/12/03 05:02:27;;;;;;;35.30;14.00;;;;;;;5.59;62.87;100973.56;4931410;28;113934;-62
2021/12/03 05:04:59;;;;;;;34.05;14.10;;;;;;;5.59;62.98;100968.28;4930686;28;124886;-62
2021/12/03 05:07:41;;;;;;;35.72;14.13;;;;;;;5.64;62.94;100966.44;4929539;28;124635;-62
2021/12/03 05:10:10;;;;;;;36.67;13.90;;;;;;;5.65;62.83;100962.94;4928072;28;113626;-62
2021/12/03 05:12:37;;;;;;;39.40;14.77;;;;;;;5.65;62.90;100957.69;4931665;28;114066;-62
2021/12/03 05:15:25;;;;;;;34.97;13.60;;;;;;;5.69;62.79;100952.31;4931640;28;124011;-62
2021/12/03 05:17:53;;;;;;;32.22;13.73;;;;;;;5.69;62.81;100947.97;4928435;28;123846;-62
2021/12/03 05:20:20;;;;;;;32.90;13.60;;;;;;;5.71;62.92;100940.91;4929520;28;114125;-62
2021/12/03 05:22:48;;;;;;;31.08;12.45;;;;;;;5.73;63.02;100954.00;4932065;28;114143;-62
2021/12/03 05:25:15;;;;;;;37.50;13.68;;;;;;;5.75;63.22;100946.97;4930986;28;124071;-62
2021/12/03 05:27:42;;;;;;;33.28;13.20;;;;;;;5.76;62.96;100943.41;4929788;28;123854;-62
2021/12/03 05:30:10;;;;;;;29.52;12.55;;;;;;;5.78;62.93;100936.34;4929534;28;115388;-62
2021/12/03 05:32:37;;;;;;;30.00;12.38;;;;;;;5.81;63.22;100949.44;4931464;28;115608;-62
2021/12/03 05:35:06;;;;;;;29.33;12.57;;;;;;;5.83;62.96;100960.75;4929982;28;123801;-62
2021/12/03 05:37:33;;;;;;;31.35;12.68;;;;;;;5.85;62.94;100948.44;4930458;28;124768;-62
2021/12/03 05:40:03;;;;;;;33.55;12.95;;;;;;;5.86;63.27;100950.19;4930954;28;114571;-62
2021/12/03 05:42:30;;;;;;;28.63;12.93;;;;;;;5.89;63.07;100957.13;4931034;28;114303;-62
2021/12/03 05:44:58;;;;;;;28.35;12.38;;;;;;;5.91;63.02;100961.44;4929126;28;124933;-62
2021/12/03 05:47:25;;;;;;;29.63;12.63;;;;;;;5.93;62.95;100956.16;4929665;28;124409;-62
2021/12/03 05:49:53;;;;;;;28.40;12.63;;;;;;;5.95;63.23;100960.53;4930043;28;114322;-62
2021/12/03 05:52:20;;;;;;;30.55;13.02;;;;;;;5.97;63.10;100957.84;4929989;28;114161;-62
2021/12/03 05:54:47;;;;;;;26.55;12.18;;;;;;;5.97;62.92;100963.97;4925434;28;124104;-62
2021/12/03 05:57:14;;;;;;;28.65;12.38;;;;;;;5.96;62.96;100959.59;4925220;28;124570;-62
2021/12/03 05:59:41;;;;;;;28.13;12.27;;;;;;;5.99;62.92;100956.91;4929403;28;114084;-62
2021/12/03 06:02:08;;;;;;;24.17;12.00;;;;;;;6.00;63.02;100953.38;4930539;28;114272;-62
2021/12/03 06:04:36;;;;;;;28.33;12.00;;;;;;;6.02;62.90;100954.19;4931086;28;123492;-62
2021/12/03 06:07:04;;;;;;;26.70;12.13;;;;;;;6.02;62.96;100956.81;4931492;28;123845;-62
2021/12/03 06:09:33;;;;;;;27.23;11.43;;;;;;;6.03;62.91;100953.31;4929883;28;114733;-62
2021/12/03 06:12:01;;;;;;;27.60;11.60;;;;;;;6.04;63.13;100957.66;4932115;28;114246;-62
2021/12/03 06:14:29;;;;;;;26.02;11.52;;;;;;;6.04;62.92;100949.75;4929481;28;124881;-62
2021/12/03 06:16:57;;;;;;;25.20;11.27;;;;;;;6.07;63.14;100942.72;4929776;28;123984;-62
2021/12/03 06:19:24;;;;;;;23.55;11.10;;;;;;;6.06;62.78;100951.50;4929502;28;115228;-62
2021/12/03 06:21:52;;;;;;;24.90;10.95;;;;;;;6.07;62.81;100945.34;4930881;28;114866;-62
2021/12/03 06:24:19;;;;;;;27.02;10.68;;;;;;;6.06;62.82;100943.59;4930289;28;123090;-62
2021/12/03 06:26:46;;;;;;;20.63;9.85;;;;;;;6.06;62.92;100951.50;4927134;28;124269;-62
2021/12/03 06:29:14;;;;;;;19.58;9.43;;;;;;;6.04;62.91;100949.75;4912765;28;114910;-62
2021/12/03 06:31:41;;;;;;;24.13;9.80;;;;;;;6.04;62.94;100946.28;4911640;28;114276;-62
2021/12/03 06:34:08;;;;;;;19.25;8.73;;;;;;;6.03;62.93;100942.78;4918273;28;124075;-62
2021/12/03 06:36:35;;;;;;;15.18;8.02;;;;;;;6.04;62.95;100947.13;4918203;28;123954;-63
2021/12/03 06:39:03;;;;;;;15.70;7.55;;;;;;;6.04;62.74;100949.75;4931058;28;114193;-63
2021/12/03 06:41:30;;;;;;;15.32;7.05;;;;;;;6.05;62.71;100945.38;4928207;28;113949;-62
2021/12/03 06:43:57;;;;;;;12.40;6.00;;;;;;;6.05;62.82;100945.38;4923693;28;123961;-62
2021/12/03 06:46:24;;;;;;;16.98;6.93;;;;;;;6.04;62.83;100933.97;4928055;28;124598;-63
2021/12/03 06:48:53;;;;;;;13.70;6.30;;;;;;;6.06;62.96;100930.47;4926603;28;114127;-60
2021/12/03 06:51:20;;;;;;;14.30;6.25;;;;;;;6.04;63.08;100933.97;4933892;28;113042;-60
2021/12/03 06:53:57;;;;;;;13.80;5.57;;;;;;;6.07;63.08;100926.94;4925495;28;124012;-60
2021/12/03 06:56:32;;;;;;;14.80;5.45;;;;;;;6.06;62.95;100927.84;4917062;28;123728;-62
2021/12/03 06:59:00;;;;;;;14.63;5.40;;;;;;;6.07;62.90;100924.31;4922056;28;114254;-62
2021/12/03 07:01:27;;;;;;;13.15;5.40;;;;;;;6.07;62.70;100916.44;4929851;28;112776;-62
2021/12/03 07:03:55;;;;;;;10.52;4.90;;;;;;;6.09;62.87;100930.41;4913105;28;123503;-62
2021/12/03 07:06:22;;;;;;;11.82;5.13;;;;;;;6.10;62.90;100926.84;4913820;28;124446;-62
2021/12/03 07:08:49;;;;;;;14.85;4.93;;;;;;;6.10;62.66;100932.09;4929203;28;115530;-61
2021/12/03 07:11:18;;;;;;;11.27;4.55;;;;;;;6.09;62.73;100914.63;4911916;28;115321;-62
2021/12/03 07:13:45;;;;;;;12.32;4.80;;;;;;;6.08;62.85;100913.72;4917633;28;124715;-62
2021/12/03 07:16:12;;;;;;;8.98;4.35;;;;;;;6.10;62.58;100916.34;4928587;28;125403;-61
2021/12/03 07:18:39;;;;;;;12.05;4.43;;;;;;;6.09;62.69;100914.63;4930454;28;114507;-61
2021/12/03 07:21:06;;;;;;;13.15;4.45;;;;;;;6.10;62.85;100924.22;4927990;28;113936;-61
2021/12/03 07:23:34;;;;;;;11.65;4.18;;;;;;;6.11;62.68;100923.34;4926012;28;123353;-61
2021/12/03 07:26:02;;;;;;;8.02;3.47;;;;;;;6.10;62.35;100917.19;4918990;28;123578;-62
2021/12/03 07:28:30;;;;;;;9.20;4.10;;;;;;;6.09;62.28;100914.63;4930922;28;114601;-61
2021/12/03 07:30:57;;;;;;;9.88;3.80;;;;;;;6.09;62.46;100909.38;4928351;28;113818;-62
2021/12/03 07:33:27;;;;;;;10.35;3.70;;;;;;;6.08;62.57;100905.84;4928604;28;124614;-63
2021/12/03 07:35:54;;;;;;;10.65;3.95;;;;;;;6.09;62.55;100909.38;4923520;28;125110;-63
2021/12/03 07:38:22;;;;;;;10.35;4.15;;;;;;;6.08;62.23;100902.38;4916679;28;114543;-62
2021/12/03 07:40:50;;;;;;;13.50;3.92;;;;;;;6.08;62.04;100912.88;4931924;28;113993;-62
2021/12/03 07:43:18;;;;;;;13.07;4.18;;;;;;;6.06;62.26;100914.69;4933727;28;123898;-61
2021/12/03 07:45:47;;;;;;;10.40;4.18;;;;;;;6.06;62.34;100919.94;4926884;28;124918;-62
2021/12/03 07:48:15;;;;;;;11.65;3.90;;;;;;;6.04;62.07;100928.72;4925402;28;114195;-62
2021/12/03 07:50:43;;;;;;;11.18;4.18;;;;;;;6.03;62.02;100916.50;4918851;28;114239;-61
2021/12/03 07:53:16;;;;;;;10.13;4.05;;;;;;;6.02;62.24;100920.00;4933915;28;124232;-61
2021/12/03 07:55:46;;;;;;;10.05;3.88;;;;;;;6.02;62.01;100920.00;4928962;28;123736;-60
2021/12/03 07:58:14;;;;;;;9.70;3.72;;;;;;;6.02;62.19;100922.63;4931061;28;115090;-60
2021/12/03 08:00:41;;;;;;;10.20;3.63;;;;;;;6.02;62.12;100925.28;4919921;28;114976;-60
2021/12/03 08:03:16;;;;;;;10.00;3.72;;;;;;;6.03;61.93;100915.63;4934111;28;124079;-61
2021/12/03 08:05:44;;;;;;;9.00;3.65;;;;;;;6.04;62.02;100927.88;4928692;28;123722;-60
2021/12/03 08:08:11;;;;;;;10.82;3.58;;;;;;;6.04;61.95;100918.22;4924597;28;114193;-60
2021/12/03 08:10:40;;;;;;;12.05;4.15;;;;;;;6.07;62.09;100908.53;4915226;28;114458;-60
2021/12/03 08:13:07;;;;;;;8.10;3.70;;;;;;;6.08;62.21;100903.22;4928359;28;123907;-60
2021/12/03 08:15:37;;;;;;;12.52;3.63;;;;;;;6.10;61.88;100905.81;4931520;28;124642;-60
2021/12/03 08:18:05;;;;;;;11.52;3.33;;;;;;;6.10;62.02;100908.44;4931344;28;114609;-61
2021/12/03 08:20:33;;;;;;;12.15;3.35;;;;;;;6.11;62.03;100907.56;4927083;28;113435;-60
2021/12/03 08:23:01;;;;;;;13.68;4.25;;;;;;;6.12;62.18;100904.00;4925571;28;124067;-60
2021/12/03 08:25:29;;;;;;;11.32;3.85;;;;;;;6.14;61.97;100904.81;4926900;28;123851;-61
2021/12/03 08:27:57;;;;;;;14.10;3.88;;;;;;;6.17;62.09;100904.75;4915369;28;114729;-60
2021/12/03 08:30:29;;;;;;;12.40;3.70;;;;;;;6.18;61.73;100911.75;4926534;28;114080;-61
2021/12/03 08:32:57;;;;;;;11.15;3.55;;;;;;;6.18;62.03;100901.25;4926906;28;124124;-61
2021/12/03 08:35:25;;;;;;;13.63;3.80;;;;;;;6.18;62.20;100898.63;4930532;28;123848;-60
2021/12/03 08:37:53;;;;;;;15.65;3.97;;;;;;;6.19;61.89;100897.69;4929487;28;114222;-60
2021/12/03 08:40:21;;;;;;;15.02;3.35;;;;;;;6.20;61.92;100902.91;4916941;28;114503;-61
2021/12/03 08:42:49;;;;;;;15.40;3.45;;;;;;;6.22;61.71;100905.50;4921234;28;124056;-61
2021/12/03 08:45:18;;;;;;;15.65;3.05;;;;;;;6.23;61.70;100901.97;4930884;28;124785;-61
2021/12/03 08:47:50;;;;;;;10.05;2.70;;;;;;;6.25;61.95;100905.41;4929875;28;114396;-60
2021/12/03 08:50:27;;;;;;;10.85;2.92;;;;;;;6.26;62.04;100891.38;4926953;28;115032;-61
2021/12/03 08:55:43;;;;;;;10.60;2.85;;;;;;;6.28;61.71;100900.09;4929648;28;123650;-61
2021/12/03 08:58:11;;;;;;;9.80;2.50;;;;;;;6.30;61.89;100898.28;4926087;28;114763;-61
2021/12/03 09:00:38;;;;;;;8.13;2.70;;;;;;;6.33;61.82;100895.56;4931941;28;113884;-60
2021/12/03 09:03:06;;;;;;;12.55;2.90;;;;;;;6.34;61.85;100894.66;4930046;28;125346;-61
2021/12/03 09:05:36;;;;;;;8.48;2.72;;;;;;;6.36;61.91;100897.25;4917117;28;96741;-61
2021/12/03 09:08:04;;;;;;;11.82;2.80;;;;;;;6.39;61.97;100882.25;4927051;28;114499;-61
2021/12/03 09:10:38;;;;;;;9.55;2.90;;;;;;;6.42;61.91;100887.44;4926633;28;113871;-60
2021/12/03 09:13:06;;;;;;;10.15;3.03;;;;;;;6.47;61.89;100879.41;4930717;28;124170;-61
2021/12/03 09:15:40;;;;;;;11.30;2.33;;;;;;;6.50;61.62;100881.06;4931013;28;122967;-60
2021/12/03 09:18:54;;;;;;;9.38;2.95;;;;;;;6.52;61.87;100871.41;4931967;28;114590;-62
2021/12/03 09:23:59;;;;;;;12.85;2.90;;;;;;;6.58;61.83;100876.50;4918107;28;123837;-61
2021/12/03 09:26:27;;;;;;;12.55;3.08;;;;;;;6.62;61.67;100872.84;4931909;28;122671;-60
2021/12/03 09:29:08;;;;;;;7.97;2.80;;;;;;;6.65;61.50;100875.41;4910954;28;114448;-60
2021/12/03 09:31:37;;;;;;;13.05;3.55;;;;;;;6.68;61.71;100882.34;4919915;28;113998;-63
2021/12/03 09:34:09;;;;;;;11.07;3.13;;;;;;;6.69;61.81;100869.16;4929402;28;123529;-60
2021/12/03 09:36:40;;;;;;;11.27;3.13;;;;;;;6.73;61.47;100873.41;4929254;28;123937;-60
2021/12/03 09:39:14;;;;;;;15.10;3.13;;;;;;;6.73;61.68;100870.78;4928854;28;114288;-60
2021/12/03 09:41:42;;;;;;;11.35;2.95;;;;;;;6.75;61.74;100866.34;4928348;28;114887;-61
2021/12/03 09:44:10;;;;;;;9.35;2.80;;;;;;;6.80;61.58;100872.34;4929565;28;124177;-61
2021/12/03 09:46:37;;;;;;;14.23;3.05;;;;;;;6.83;61.53;100872.22;4928900;28;123708;-61
2021/12/03 09:51:45;;;;;;;9.65;3.17;;;;;;;6.88;61.49;100873.88;4929529;28;114294;-61
2021/12/03 09:54:24;;;;;;;8.07;2.95;;;;;;;6.90;61.57;100864.19;4927080;28;124196;-61
2021/12/03 09:56:57;;;;;;;14.85;3.00;;;;;;;6.92;61.58;100859.72;4925231;28;124158;-61
2021/12/03 10:00:15;;;;;;;10.38;3.42;;;;;;;6.95;61.47;100849.06;4926274;28;115194;-60
2021/12/03 10:02:31;;;;;;;10.05;2.45;;;;;;;6.97;60.91;100852.56;4920765;28;114135;-61
2021/12/03 10:21:29;;;;;;;7.40;2.50;;;;;;;7.11;61.31;100818.75;4926133;28;114499;-61
2021/12/03 10:29:31;;;;;;;6.85;2.20;;;;;;;7.20;61.38;100802.66;4919040;28;124899;-61
2021/12/03 10:38:01;;;;;;;10.73;2.65;;;;;;;7.30;61.20;100791.84;4930882;28;124739;-61
2021/12/03 10:40:52;;;;;;;7.70;2.28;;;;;;;7.32;61.05;100785.59;4926142;28;123742;-61
2021/12/03 10:49:08;;;;;;;5.80;2.40;;;;;;;7.37;61.17;100767.00;4927672;28;122990;-61
2021/12/03 11:37:53;;;;;;;8.75;3.05;;;;;;;7.86;60.88;100670.41;4951506;28;114209;-61
2021/12/03 11:41:31;;;;;;;9.30;3.10;;;;;;;7.89;60.79;100658.88;4929232;28;112950;-61
2021/12/03 12:21:35;;;;;;;9.00;3.00;;;;;;;8.35;60.52;100578.84;4927645;28;124498;-60
2021/12/03 12:41:06;;;;;;;7.90;3.10;;;;;;;8.53;60.34;100539.47;4926555;28;124520;-60
2021/12/03 14:09:23;;;;;;;4.35;1.83;;;;;;;8.70;58.76;100478.91;4931851;28;123885;-61
2021/12/03 14:13:35;;;;;;;5.38;1.95;;;;;;;8.68;58.71;100462.28;4912515;28;123081;-61
2021/12/03 14:45:12;;;;;;;5.00;2.17;;;;;;;8.45;59.50;100446.56;4936948;28;123697;-61
2021/12/03 14:55:37;;;;;;;7.15;2.55;;;;;;;8.36;59.54;100448.66;4928568;28;123730;-60
2021/12/03 14:58:27;;;;;;;5.85;2.20;;;;;;;8.35;59.35;100446.91;4927680;28;114827;-61
2021/12/03 15:00:59;;;;;;;5.25;2.17;;;;;;;8.33;59.43;100448.75;4927081;28;113922;-61
2021/12/03 15:06:11;;;;;;;4.38;2.50;;;;;;;8.32;59.29;100454.94;4925140;28;124417;-61
2021/12/03 15:25:06;;;;;;;5.47;2.38;;;;;;;8.24;59.77;100448.28;4916464;28;123898;-62
2021/12/03 15:33:09;;;;;;;7.03;2.38;;;;;;;8.17;59.88;100447.69;4930374;28;113873;-61
2021/12/03 15:38:34;;;;;;;6.63;2.35;;;;;;;8.14;60.24;100432.00;4927787;28;124387;-61
2021/12/03 16:08:29;;;;;;;3.45;2.28;;;;;;;7.95;61.08;100401.09;4921595;28;124215;-61
2021/12/03 16:11:10;;;;;;;4.03;2.30;;;;;;;7.95;61.03;100395.84;4920223;28;124527;-61
2021/12/03 16:27:24;;;;;;;;;;;;;;;7.91;61.09;100386.34;4927949;28;114958;-61
2021/12/03 16:51:28;;;;;;;2.95;2.00;;;;;;;7.93;61.31;100360.75;4930811;28;125179;-61
2021/12/03 16:54:04;;;;;;;2.50;1.95;;;;;;;7.95;61.60;100360.72;4929844;28;124642;-61
2021/12/03 16:56:33;;;;;;;3.08;2.08;;;;;;;7.96;61.44;100360.63;4927400;28;115267;-62
2021/12/03 16:59:00;;;;;;;3.53;2.30;;;;;;;7.98;61.20;100353.50;4913962;28;114085;-61
2021/12/03 17:04:22;;;;;;;3.15;2.25;;;;;;;8.01;61.69;100351.69;4930528;28;124235;-62
2021/12/03 17:15:28;;;;;;;3.22;1.63;;;;;;;8.03;61.63;100352.47;4929832;28;122826;-62
2021/12/03 17:18:48;;;;;;;2.53;1.80;;;;;;;8.02;61.46;100353.38;4928633;28;114904;-62
2021/12/03 17:45:48;;;;;;;3.63;2.30;;;;;;;7.98;61.85;100327.13;4928128;28;124125;-62
2021/12/03 17:50:47;;;;;;;2.83;2.10;;;;;;;7.98;61.73;100300.75;4926619;28;116356;-62
2021/12/03 17:56:06;;;;;;;3.72;2.30;;;;;;;8.01;61.89;100283.13;4926788;28;125225;-62
2021/12/03 17:58:49;;;;;;;2.75;1.80;;;;;;;7.99;61.87;100265.56;4923439;28;123908;-62
2021/12/03 18:04:08;;;;;;;2.03;1.55;;;;;;;7.98;62.00;100274.38;4921878;28;113127;-62
2021/12/03 18:09:23;;;;;;;2.47;1.83;;;;;;;7.99;62.38;100264.72;4926814;28;123771;-62
2021/12/03 18:17:33;;;;;;;2.53;1.70;;;;;;;8.02;62.09;100253.16;4927376;28;124606;-62